createdAt,value
2023-01-18T00:00:33.509Z,1.30
2023-01-18T00:03:00.232Z,0.90
2023-01-18T00:05:26.993Z,1.23
2023-01-18T00:07:53.558Z,0.80
2023-01-18T00:10:19.932Z,0.73
2023-01-18T00:12:46.511Z,1.08
2023-01-18T00:15:12.890Z,0.70
2023-01-18T00:17:47.752Z,0.80
2023-01-18T00:20:14.792Z,0.80
2023-01-18T00:22:41.230Z,0.80
2023-01-18T00:25:07.789Z,0.95
2023-01-18T00:27:34.100Z,0.82
2023-01-18T00:30:00.396Z,1.20
2023-01-18T00:32:26.737Z,0.80
2023-01-18T00:34:53.117Z,0.98
2023-01-18T00:37:19.404Z,0.80
2023-01-18T00:39:45.757Z,0.98
2023-01-18T00:42:30.649Z,0.90
2023-01-18T00:44:56.983Z,1.13
2023-01-18T00:47:23.328Z,0.98
2023-01-18T00:49:49.605Z,0.60
2023-01-18T00:52:15.959Z,0.70
2023-01-18T00:54:42.416Z,0.70
2023-01-18T00:57:08.823Z,0.80
2023-01-18T00:59:35.112Z,0.52
2023-01-18T01:02:01.663Z,0.65
2023-01-18T01:04:46.908Z,0.90
2023-01-18T01:07:13.281Z,1.00
2023-01-18T01:09:40.065Z,0.90
2023-01-18T01:12:24.859Z,1.13
2023-01-18T01:15:09.762Z,1.65
2023-01-18T01:17:55.486Z,1.10
2023-01-18T01:20:41.300Z,1.00
2023-01-18T01:23:30.753Z,0.98
2023-01-18T01:26:10.967Z,1.10
2023-01-18T01:28:41.371Z,1.00
2023-01-18T01:31:08.814Z,1.10
2023-01-18T01:33:35.709Z,1.17
2023-01-18T01:36:03.876Z,0.80
2023-01-18T01:38:30.427Z,1.30
2023-01-18T01:41:01.038Z,1.20
2023-01-18T01:43:39.274Z,0.98
2023-01-18T01:46:11.538Z,1.20
2023-01-18T01:48:37.868Z,1.10
2023-01-18T01:51:04.193Z,0.75
2023-01-18T01:53:30.579Z,0.75
2023-01-18T01:55:56.921Z,1.00
2023-01-18T01:58:26.021Z,0.90
2023-01-18T02:00:54.244Z,1.40
2023-01-18T02:03:22.499Z,1.00
2023-01-18T02:05:51.765Z,1.10
2023-01-18T02:08:22.187Z,1.05
2023-01-18T02:10:49.240Z,1.00
2023-01-18T02:13:15.977Z,0.95
2023-01-18T02:16:01.205Z,1.30
2023-01-18T02:18:30.545Z,0.88
2023-01-18T02:21:05.856Z,1.02
2023-01-18T02:23:33.165Z,1.00
2023-01-18T02:26:05.231Z,1.30
2023-01-18T02:31:00.595Z,1.42
2023-01-18T02:33:42.236Z,1.42
2023-01-18T02:36:08.606Z,0.80
2023-01-18T02:38:45.379Z,0.70
2023-01-18T02:41:17.896Z,1.15
2023-01-18T02:44:03.924Z,0.90
2023-01-18T02:46:30.768Z,1.20
2023-01-18T02:48:57.619Z,1.40
2023-01-18T02:51:24.419Z,1.50
2023-01-18T02:53:50.856Z,1.63
2023-01-18T02:56:21.826Z,1.55
2023-01-18T02:58:51.316Z,0.93
2023-01-18T03:01:26.723Z,1.85
2023-01-18T03:03:56.621Z,1.33
2023-01-18T03:06:24.852Z,1.10
2023-01-18T03:08:52.745Z,1.05
2023-01-18T03:11:27.078Z,1.25
2023-01-18T03:14:08.870Z,0.90
2023-01-18T03:16:40.211Z,0.82
2023-01-18T03:19:30.627Z,0.98
2023-01-18T03:21:57.261Z,0.85
2023-01-18T03:24:23.681Z,0.73
2023-01-18T03:26:53.134Z,1.17
2023-01-18T03:29:39.547Z,1.52
2023-01-18T03:32:31.837Z,1.70
2023-01-18T03:37:29.656Z,1.58
2023-01-18T03:39:57.766Z,1.52
2023-01-18T03:42:35.731Z,1.50
2023-01-18T03:45:10.753Z,1.30
2023-01-18T03:47:37.398Z,1.42
2023-01-18T03:50:03.914Z,1.23
2023-01-18T03:52:43.569Z,1.80
2023-01-18T03:55:14.233Z,1.63
2023-01-18T03:57:40.582Z,1.20
2023-01-18T04:00:08.645Z,1.75
2023-01-18T04:02:35.083Z,1.75
2023-01-18T04:05:03.575Z,1.75
2023-01-18T04:07:31.717Z,1.60
2023-01-18T04:09:58.725Z,1.33
2023-01-18T04:12:25.437Z,1.40
2023-01-18T04:14:52.268Z,1.60
2023-01-18T04:17:19.162Z,1.33
2023-01-18T04:19:45.527Z,1.17
2023-01-18T04:22:11.992Z,1.00
2023-01-18T04:24:38.763Z,0.70
2023-01-18T04:27:05.138Z,1.10
2023-01-18T04:29:31.436Z,1.45
2023-01-18T04:31:58.049Z,1.00
2023-01-18T04:34:24.463Z,1.20
2023-01-18T04:36:51.229Z,1.23
2023-01-18T04:39:17.727Z,1.10
2023-01-18T04:41:44.700Z,1.05
2023-01-18T04:44:11.238Z,1.42
2023-01-18T04:46:38.563Z,1.02
2023-01-18T04:49:05.905Z,1.08
2023-01-18T04:51:32.581Z,0.90
2023-01-18T04:53:59.300Z,1.17
2023-01-18T04:56:25.801Z,1.00
2023-01-18T04:58:52.647Z,0.90
2023-01-18T05:01:18.989Z,1.00
2023-01-18T05:03:45.465Z,1.50
2023-01-18T05:06:12.608Z,1.35
2023-01-18T05:08:41.955Z,1.38
2023-01-18T05:11:09.749Z,1.40
2023-01-18T05:13:36.066Z,1.27
2023-01-18T05:16:05.964Z,1.88
2023-01-18T05:18:32.582Z,1.45
2023-01-18T05:20:58.906Z,1.50
2023-01-18T05:23:25.500Z,1.73
2023-01-18T05:25:52.908Z,1.60
2023-01-18T05:28:19.387Z,1.42
2023-01-18T05:30:45.749Z,1.17
2023-01-18T05:33:12.131Z,1.15
2023-01-18T05:35:38.540Z,1.00
2023-01-18T05:38:04.900Z,1.20
2023-01-18T05:40:31.459Z,1.95
2023-01-18T05:42:58.043Z,1.40
2023-01-18T05:45:24.713Z,1.30
2023-01-18T05:47:51.001Z,1.48
2023-01-18T05:50:17.409Z,1.60
2023-01-18T05:52:44.842Z,1.58
2023-01-18T05:55:11.170Z,1.20
2023-01-18T05:57:37.461Z,1.10
2023-01-18T06:00:05.080Z,0.88
2023-01-18T06:02:31.477Z,1.48
2023-01-18T06:04:57.773Z,1.33
2023-01-18T06:07:24.075Z,1.17
2023-01-18T06:09:50.406Z,1.50
2023-01-18T06:12:16.705Z,1.30
2023-01-18T06:14:43.153Z,1.20
2023-01-18T06:17:09.437Z,0.80
2023-01-18T06:19:35.973Z,1.33
2023-01-18T06:22:02.324Z,1.20
2023-01-18T06:24:28.668Z,2.40
2023-01-18T06:26:55.077Z,1.95
2023-01-18T06:29:21.412Z,2.30
2023-01-18T06:31:47.856Z,2.15
2023-01-18T06:34:14.280Z,2.10
2023-01-18T06:36:40.698Z,1.95
2023-01-18T06:39:07.134Z,1.92
2023-01-18T06:41:33.662Z,2.58
2023-01-18T06:43:59.987Z,1.80
2023-01-18T06:46:26.311Z,1.63
2023-01-18T06:48:52.777Z,2.03
2023-01-18T06:51:20.320Z,1.38
2023-01-18T06:53:46.613Z,1.60
2023-01-18T06:56:14.614Z,1.50
2023-01-18T06:58:41.001Z,3.00
2023-01-18T07:01:07.721Z,3.10
2023-01-18T07:03:34.474Z,2.30
2023-01-18T07:06:01.681Z,2.10
2023-01-18T07:08:30.956Z,2.97
2023-01-18T07:10:57.881Z,2.42
2023-01-18T07:13:24.319Z,2.13
2023-01-18T07:15:54.845Z,1.92
2023-01-18T07:18:21.191Z,2.17
2023-01-18T07:20:47.601Z,1.67
2023-01-18T07:23:13.885Z,1.58
2023-01-18T07:25:40.248Z,1.55
2023-01-18T07:28:06.636Z,1.10
2023-01-18T07:30:32.994Z,1.15
2023-01-18T07:32:59.748Z,1.00
2023-01-18T07:35:27.452Z,1.45
2023-01-18T07:37:53.980Z,1.20
2023-01-18T07:40:21.275Z,0.90
2023-01-18T07:42:48.993Z,1.05
2023-01-18T07:45:15.652Z,1.23
2023-01-18T07:47:42.609Z,1.35
2023-01-18T07:50:09.629Z,1.83
2023-01-18T07:52:36.029Z,1.40
2023-01-18T07:55:02.430Z,1.77
2023-01-18T07:57:28.818Z,1.33
2023-01-18T07:59:55.464Z,1.45
2023-01-18T08:02:21.953Z,1.30
2023-01-18T08:04:49.986Z,1.20
2023-01-18T08:07:17.774Z,1.63
2023-01-18T08:09:44.233Z,1.40
2023-01-18T08:12:13.616Z,1.50
2023-01-18T08:14:40.454Z,2.13
2023-01-18T08:17:06.889Z,1.88
2023-01-18T08:19:33.222Z,2.45
2023-01-18T08:21:59.573Z,1.70
2023-01-18T08:24:26.127Z,2.22
2023-01-18T08:26:52.582Z,1.85
2023-01-18T08:29:18.933Z,2.38
2023-01-18T08:31:45.237Z,1.70
2023-01-18T08:34:11.711Z,2.15
2023-01-18T08:36:38.062Z,2.63
2023-01-18T08:39:04.385Z,1.67
2023-01-18T08:41:31.009Z,2.60
2023-01-18T08:43:58.305Z,2.17
2023-01-18T08:46:25.175Z,2.25
2023-01-18T08:48:56.261Z,2.03
2023-01-18T08:51:23.001Z,2.13
2023-01-18T08:53:51.619Z,1.95
2023-01-18T08:56:18.806Z,1.60
2023-01-18T08:58:45.186Z,1.60
2023-01-18T09:01:11.638Z,2.05
2023-01-18T09:03:38.052Z,1.70
2023-01-18T09:06:05.814Z,1.88
2023-01-18T09:08:32.154Z,1.80
2023-01-18T09:11:05.615Z,2.22
2023-01-18T09:13:32.471Z,1.90
2023-01-18T09:16:03.324Z,1.70
2023-01-18T09:18:30.214Z,1.60
2023-01-18T09:20:57.278Z,1.27
2023-01-18T09:23:24.168Z,1.48
2023-01-18T09:26:03.564Z,1.27
2023-01-18T09:28:30.133Z,1.30
2023-01-18T09:30:59.597Z,1.20
2023-01-18T09:33:36.749Z,1.10
2023-01-18T09:36:05.379Z,0.70
2023-01-18T09:38:31.843Z,0.80
2023-01-18T09:40:58.860Z,0.90
2023-01-18T09:43:30.667Z,0.80
2023-01-18T09:45:57.121Z,0.70
2023-01-18T09:48:29.572Z,0.63
2023-01-18T09:50:58.174Z,0.60
2023-01-18T09:53:33.444Z,0.60
2023-01-18T09:56:11.866Z,1.25
2023-01-18T09:58:41.678Z,1.15
2023-01-18T10:01:12.023Z,1.10
2023-01-18T10:03:44.358Z,0.98
2023-01-18T10:06:17.706Z,1.13
2023-01-18T10:08:53.317Z,0.90
2023-01-18T10:11:23.498Z,1.60
2023-01-18T10:13:58.708Z,2.00
2023-01-18T10:16:25.916Z,1.50
2023-01-18T10:18:55.583Z,1.60
2023-01-18T10:21:28.933Z,1.83
2023-01-18T10:24:01.563Z,2.80
2023-01-18T10:26:30.751Z,2.92
2023-01-18T10:28:58.972Z,2.83
2023-01-18T10:31:35.244Z,3.50
2023-01-18T10:34:02.778Z,3.28
2023-01-18T10:36:32.847Z,3.65
2023-01-18T10:39:04.290Z,4.30
2023-01-18T10:41:36.913Z,5.50
2023-01-18T10:44:03.496Z,5.10
2023-01-18T10:46:29.939Z,4.80
2023-01-18T10:48:59.383Z,5.10
2023-01-18T10:51:36.210Z,4.28
2023-01-18T10:54:17.600Z,4.18
2023-01-18T10:56:44.506Z,4.13
2023-01-18T10:59:25.058Z,3.63
2023-01-18T11:01:53.331Z,2.70
2023-01-18T11:04:25.486Z,2.90
2023-01-18T11:09:37.989Z,4.00
2023-01-18T11:12:38.475Z,3.28
2023-01-18T11:15:13.956Z,3.55
2023-01-18T11:17:41.781Z,4.07
2023-01-18T11:20:15.950Z,5.22
2023-01-18T11:22:55.278Z,4.40
2023-01-18T11:25:23.311Z,5.03
2023-01-18T11:27:49.758Z,3.72
2023-01-18T11:30:23.362Z,4.00
2023-01-18T11:32:50.652Z,3.60
2023-01-18T11:35:37.430Z,3.22
2023-01-18T11:38:06.624Z,3.35
2023-01-18T11:40:33.746Z,3.25
2023-01-18T11:43:03.807Z,2.88
2023-01-18T11:45:40.421Z,3.45
2023-01-18T11:48:09.873Z,3.10
2023-01-18T11:50:40.634Z,3.40
2023-01-18T11:53:12.783Z,3.40
2023-01-18T11:56:06.008Z,2.80
2023-01-18T11:58:33.117Z,3.40
2023-01-18T12:00:59.397Z,3.28
2023-01-18T12:03:40.800Z,3.30
2023-01-18T12:06:14.755Z,2.25
2023-01-18T12:08:41.340Z,2.63
2023-01-18T12:11:07.616Z,2.47
2023-01-18T12:13:42.272Z,2.90
2023-01-18T12:16:15.853Z,2.28
2023-01-18T12:18:48.079Z,2.15
2023-01-18T12:21:19.548Z,3.05
2023-01-18T12:23:49.458Z,2.50
2023-01-18T12:26:18.522Z,1.85
2023-01-18T12:28:47.977Z,1.73
2023-01-18T12:31:40.528Z,2.50
2023-01-18T12:34:20.514Z,1.58
2023-01-18T12:36:58.821Z,1.60
2023-01-18T12:39:48.426Z,2.00
2023-01-18T12:42:21.568Z,1.42
2023-01-18T12:44:47.875Z,1.30
2023-01-18T12:47:35.122Z,1.05
2023-01-18T12:50:05.507Z,1.40
2023-01-18T12:52:41.506Z,1.17
2023-01-18T12:55:08.240Z,1.65
2023-01-18T12:57:35.233Z,1.23
2023-01-18T13:00:06.283Z,1.60
2023-01-18T13:02:38.850Z,0.88
2023-01-18T13:05:17.861Z,0.90
2023-01-18T13:07:46.571Z,1.05
2023-01-18T13:10:21.483Z,1.50
2023-01-18T13:12:49.457Z,1.40
2023-01-18T13:15:20.768Z,1.45
2023-01-18T13:18:00.727Z,2.00
2023-01-18T13:20:39.098Z,2.10
2023-01-18T13:23:27.500Z,2.25
2023-01-18T13:26:16.823Z,2.83
2023-01-18T13:28:44.156Z,2.60
2023-01-18T13:31:10.589Z,3.05
2023-01-18T13:33:39.235Z,2.13
2023-01-18T13:36:11.025Z,3.80
2023-01-18T13:39:01.753Z,3.65
2023-01-18T13:41:29.395Z,2.80
2023-01-18T13:44:03.247Z,3.63
2023-01-18T13:46:31.338Z,2.60
2023-01-18T13:48:58.955Z,2.22
2023-01-18T13:51:40.391Z,2.17
2023-01-18T13:54:09.717Z,1.95
2023-01-18T13:56:39.702Z,1.80
2023-01-18T13:59:18.427Z,2.08
2023-01-18T14:01:46.269Z,2.65
2023-01-18T14:04:30.084Z,2.53
2023-01-18T14:06:58.688Z,2.55
2023-01-18T14:09:34.183Z,2.33
2023-01-18T14:12:00.636Z,2.20
2023-01-18T14:14:31.300Z,2.67
2023-01-18T14:16:59.754Z,2.30
2023-01-18T14:19:27.534Z,3.00
2023-01-18T14:21:53.821Z,3.55
2023-01-18T14:24:27.114Z,3.70
2023-01-18T14:26:54.806Z,3.35
2023-01-18T14:29:25.135Z,3.78
2023-01-18T14:31:53.605Z,2.80
2023-01-18T14:34:23.470Z,4.13
2023-01-18T14:36:49.844Z,4.90
2023-01-18T14:39:17.932Z,4.20
2023-01-18T14:41:47.481Z,3.58
2023-01-18T14:44:18.324Z,4.65
2023-01-18T14:46:49.919Z,4.10
2023-01-18T14:49:18.010Z,3.60
2023-01-18T14:51:48.318Z,4.00
2023-01-18T14:54:17.133Z,3.80
2023-01-18T14:56:43.542Z,4.28
2023-01-18T14:59:23.675Z,4.40
2023-01-18T15:01:56.116Z,4.90
2023-01-18T15:04:24.000Z,3.78
2023-01-18T15:07:13.607Z,2.85
2023-01-18T15:09:40.752Z,2.80
2023-01-18T15:12:08.925Z,3.00
2023-01-18T15:14:36.663Z,3.38
2023-01-18T15:17:06.653Z,4.35
2023-01-18T15:19:34.476Z,3.40
2023-01-18T15:22:01.463Z,3.42
2023-01-18T15:24:29.273Z,2.85
2023-01-18T15:26:57.060Z,3.83
2023-01-18T15:29:26.434Z,4.07
2023-01-18T15:31:57.190Z,3.17
2023-01-18T15:34:26.883Z,3.20
2023-01-18T15:36:54.677Z,3.33
2023-01-18T15:39:21.150Z,3.03
2023-01-18T15:41:47.692Z,2.20
2023-01-18T15:44:24.901Z,2.72
2023-01-18T15:46:51.181Z,2.80
2023-01-18T15:49:18.363Z,2.80
2023-01-18T15:51:57.177Z,3.60
2023-01-18T15:54:28.439Z,2.70
2023-01-18T15:57:09.801Z,3.38
2023-01-18T15:59:36.081Z,3.40
2023-01-18T16:02:05.556Z,3.92
2023-01-18T16:04:32.135Z,3.85
2023-01-18T16:06:58.593Z,5.25
2023-01-18T16:09:25.180Z,3.05
2023-01-18T16:11:53.082Z,3.17
2023-01-18T16:14:28.522Z,2.70
2023-01-18T16:16:55.207Z,3.15
2023-01-18T16:19:21.581Z,2.63
2023-01-18T16:21:49.997Z,2.17
2023-01-18T16:24:16.404Z,2.45
2023-01-18T16:26:43.751Z,2.67
2023-01-18T16:29:10.175Z,2.15
2023-01-18T16:31:39.104Z,2.30
2023-01-18T16:34:16.451Z,2.17
2023-01-18T16:36:43.002Z,5.03
2023-01-18T16:39:09.383Z,4.47
2023-01-18T16:41:35.789Z,3.55
2023-01-18T16:44:03.447Z,7.15
2023-01-18T16:46:29.849Z,7.47
2023-01-18T16:48:56.214Z,6.05
2023-01-18T16:51:24.444Z,7.03
2023-01-18T16:53:50.817Z,4.80
2023-01-18T16:56:17.236Z,4.65
2023-01-18T16:58:43.744Z,3.70
2023-01-18T17:01:11.967Z,4.95
2023-01-18T17:03:39.581Z,4.10
2023-01-18T17:06:06.535Z,5.03
2023-01-18T17:08:33.219Z,5.00
2023-01-18T17:10:59.738Z,4.20
2023-01-18T17:13:26.156Z,5.50
2023-01-18T17:15:53.125Z,4.82
2023-01-18T17:18:22.384Z,6.72
2023-01-18T17:20:48.802Z,4.93
2023-01-18T17:23:15.480Z,5.15
2023-01-18T17:25:41.846Z,5.85
2023-01-18T17:28:08.658Z,7.72
2023-01-18T17:30:35.071Z,5.90
2023-01-18T17:33:01.720Z,6.43
2023-01-18T17:35:28.631Z,5.53
2023-01-18T17:38:01.078Z,6.55
2023-01-18T17:40:40.068Z,7.10
2023-01-18T17:43:11.564Z,5.93
2023-01-18T17:45:40.753Z,6.75
2023-01-18T17:48:07.158Z,7.93
2023-01-18T17:50:33.545Z,13.63
2023-01-18T17:53:00.412Z,10.75
2023-01-18T17:55:34.256Z,8.55
2023-01-18T17:58:01.351Z,8.13
2023-01-18T18:00:27.686Z,5.70
2023-01-18T18:02:54.287Z,6.40
2023-01-18T18:05:20.729Z,5.65
2023-01-18T18:07:49.571Z,5.75
2023-01-18T18:10:16.367Z,5.47
2023-01-18T18:12:43.169Z,6.50
2023-01-18T18:15:09.634Z,7.50
2023-01-18T18:17:36.116Z,7.72
2023-01-18T18:20:02.577Z,8.13
2023-01-18T18:22:29.014Z,6.60
2023-01-18T18:24:55.430Z,7.70
2023-01-18T18:27:23.172Z,6.40
2023-01-18T18:29:49.868Z,7.25
2023-01-18T18:32:17.131Z,8.00
2023-01-18T18:34:43.554Z,6.88
2023-01-18T18:37:09.958Z,6.30
2023-01-18T18:39:36.291Z,8.40
2023-01-18T18:42:02.637Z,9.45
2023-01-18T18:44:28.964Z,8.27
2023-01-18T18:46:55.246Z,9.13
2023-01-18T18:49:21.751Z,8.20
2023-01-18T18:51:48.146Z,8.50
2023-01-18T18:54:14.587Z,8.18
2023-01-18T18:56:41.572Z,13.73
2023-01-18T18:59:08.173Z,9.32
2023-01-18T19:01:35.288Z,9.70
2023-01-18T19:04:01.796Z,7.55
2023-01-18T19:06:28.217Z,8.05
2023-01-18T19:08:54.629Z,8.93
2023-01-18T19:11:21.021Z,9.45
2023-01-18T19:13:49.378Z,8.68
2023-01-18T19:16:16.678Z,7.97
2023-01-18T19:18:43.551Z,8.02
2023-01-18T19:21:09.885Z,8.07
2023-01-18T19:23:36.179Z,8.23
2023-01-18T19:26:03.907Z,8.82
2023-01-18T19:28:30.901Z,6.05
2023-01-18T19:31:04.101Z,7.03
2023-01-18T19:33:30.401Z,6.03
2023-01-18T19:35:56.778Z,5.68
2023-01-18T19:38:23.317Z,6.97
2023-01-18T19:40:49.745Z,6.07
2023-01-18T19:43:16.197Z,6.30
2023-01-18T19:45:42.613Z,7.38
2023-01-18T19:48:09.094Z,7.50
2023-01-18T19:50:35.470Z,7.32
2023-01-18T19:53:02.171Z,7.82
2023-01-18T19:55:28.695Z,10.43
2023-01-18T19:57:56.052Z,8.38
2023-01-18T20:00:22.649Z,7.78
2023-01-18T20:02:49.148Z,8.85
2023-01-18T20:05:15.531Z,8.55
2023-01-18T20:07:42.602Z,11.88
2023-01-18T20:10:09.159Z,9.68
2023-01-18T20:12:35.513Z,6.40
2023-01-18T20:15:01.959Z,6.53
2023-01-18T20:17:28.262Z,5.32
2023-01-18T20:19:54.665Z,7.07
2023-01-18T20:22:22.219Z,5.53
2023-01-18T20:24:48.867Z,4.93
2023-01-18T20:27:16.871Z,5.70
2023-01-18T20:29:43.680Z,5.50
2023-01-18T20:32:16.155Z,4.75
2023-01-18T20:34:46.992Z,4.50
2023-01-18T20:37:15.018Z,5.03
2023-01-18T20:39:41.590Z,5.20
2023-01-18T20:42:08.269Z,5.38
2023-01-18T20:44:34.634Z,4.85
2023-01-18T20:47:01.078Z,4.53
2023-01-18T20:49:37.273Z,5.45
2023-01-18T20:52:04.910Z,6.68
2023-01-18T20:54:31.309Z,7.40
2023-01-18T20:56:58.758Z,6.05
2023-01-18T20:59:25.291Z,6.50
2023-01-18T21:01:52.942Z,5.53
2023-01-18T21:04:20.708Z,6.65
2023-01-18T21:06:49.676Z,5.95
2023-01-18T21:09:16.448Z,5.40
2023-01-18T21:11:42.817Z,6.28
2023-01-18T21:14:09.416Z,6.30
2023-01-18T21:16:35.810Z,6.40
2023-01-18T21:19:02.117Z,7.22
2023-01-18T21:21:29.614Z,8.50
2023-01-18T21:23:56.047Z,6.78
2023-01-18T21:26:22.640Z,6.28
2023-01-18T21:28:49.044Z,5.63
2023-01-18T21:31:15.415Z,8.90
2023-01-18T21:33:42.474Z,8.07
2023-01-18T21:36:11.282Z,7.43
2023-01-18T21:38:37.618Z,6.80
2023-01-18T21:41:23.067Z,7.00
2023-01-18T21:44:08.733Z,7.25
2023-01-18T21:46:36.026Z,7.10
2023-01-18T21:49:03.882Z,6.00
2023-01-18T21:51:49.141Z,7.47
2023-01-18T21:54:15.586Z,7.38
2023-01-18T21:56:45.355Z,6.88
2023-01-18T21:59:12.680Z,6.25
2023-01-18T22:01:40.825Z,5.82
2023-01-18T22:04:27.332Z,5.82
2023-01-18T22:06:54.071Z,6.47
2023-01-18T22:09:20.599Z,4.40
2023-01-18T22:11:47.410Z,4.70
2023-01-18T22:14:13.866Z,4.30
2023-01-18T22:16:40.256Z,6.18
2023-01-18T22:19:07.068Z,6.63
2023-01-18T22:21:33.526Z,6.45
2023-01-18T22:23:59.877Z,6.85
2023-01-18T22:26:27.621Z,6.10
2023-01-18T22:28:53.949Z,7.20
2023-01-18T22:31:20.474Z,7.03
2023-01-18T22:33:48.345Z,6.07
2023-01-18T22:36:15.424Z,5.13
2023-01-18T22:38:42.189Z,6.50
2023-01-18T22:41:12.973Z,5.88
2023-01-18T22:43:39.877Z,6.20
2023-01-18T22:46:07.252Z,6.70
2023-01-18T22:48:34.323Z,6.78
2023-01-18T22:51:01.324Z,6.15
2023-01-18T22:53:28.435Z,5.82
2023-01-18T22:55:55.353Z,6.60
2023-01-18T22:58:21.801Z,9.30
2023-01-18T23:00:49.119Z,7.47
2023-01-18T23:03:17.376Z,7.55
2023-01-18T23:05:52.237Z,7.72
2023-01-18T23:08:18.539Z,8.05
2023-01-18T23:10:44.894Z,7.05
2023-01-18T23:13:11.285Z,7.65
2023-01-18T23:16:05.574Z,6.72
2023-01-18T23:18:31.897Z,7.68
2023-01-18T23:20:58.874Z,7.82
2023-01-18T23:23:25.450Z,7.40
2023-01-18T23:25:59.153Z,6.88
2023-01-18T23:28:41.059Z,7.75
2023-01-18T23:31:14.925Z,7.25
2023-01-18T23:33:41.487Z,7.30
2023-01-18T23:36:08.625Z,6.80
2023-01-18T23:38:53.728Z,6.95
2023-01-18T23:41:38.780Z,6.45
2023-01-18T23:44:23.525Z,7.18
2023-01-18T23:47:08.617Z,6.55
2023-01-18T23:49:53.534Z,7.63
2023-01-18T23:52:38.709Z,7.60
2023-01-18T23:55:05.838Z,7.65
2023-01-18T23:57:32.714Z,6.88
2023-01-18T23:59:59.135Z,7.45
